createdAt,value
2022-08-12T00:00:48.591Z,19.60
2022-08-12T00:03:35.252Z,20.05
2022-08-12T00:06:21.702Z,20.27
2022-08-12T00:09:07.157Z,18.33
2022-08-12T00:11:52.481Z,17.58
2022-08-12T00:14:37.729Z,19.45
2022-08-12T00:17:23.408Z,18.48
2022-08-12T00:20:10.047Z,18.75
2022-08-12T00:22:59.265Z,18.30
2022-08-12T00:26:21.718Z,19.30
2022-08-12T00:29:01.826Z,20.65
2022-08-12T00:31:47.003Z,17.90
2022-08-12T00:34:32.385Z,17.92
2022-08-12T00:37:19.239Z,15.45
2022-08-12T00:40:10.701Z,18.83
2022-08-12T00:42:38.916Z,17.23
2022-08-12T00:45:07.073Z,16.02
2022-08-12T00:47:34.881Z,15.25
2022-08-12T00:50:02.765Z,15.05
2022-08-12T00:52:32.314Z,13.73
2022-08-12T00:55:00.926Z,12.88
2022-08-12T00:57:29.741Z,17.67
2022-08-12T00:59:58.056Z,17.67
2022-08-12T01:02:28.591Z,15.55
2022-08-12T01:05:14.793Z,16.33
2022-08-12T01:08:01.904Z,13.27
2022-08-12T01:10:48.289Z,13.70
2022-08-12T01:13:19.342Z,15.27
2022-08-12T01:15:49.493Z,13.23
2022-08-12T01:18:18.111Z,12.73
2022-08-12T01:20:49.701Z,15.50
2022-08-12T01:23:32.662Z,13.85
2022-08-12T01:26:03.631Z,12.95
2022-08-12T01:28:32.314Z,10.43
2022-08-12T01:31:02.243Z,10.50
2022-08-12T01:33:31.935Z,12.38
2022-08-12T01:36:08.644Z,12.23
2022-08-12T01:38:37.119Z,9.85
2022-08-12T01:41:08.786Z,12.88
2022-08-12T01:43:37.288Z,11.55
2022-08-12T01:46:08.574Z,10.52
2022-08-12T01:48:43.425Z,10.80
2022-08-12T01:52:16.040Z,9.98
2022-08-12T01:54:09.542Z,10.65
2022-08-12T01:56:51.484Z,10.95
2022-08-12T01:59:44.452Z,11.50
2022-08-12T02:02:16.714Z,10.77
2022-08-12T02:05:09.527Z,10.07
2022-08-12T02:08:02.573Z,10.38
2022-08-12T02:10:53.706Z,9.68
2022-08-12T02:13:48.332Z,11.45
2022-08-12T02:16:24.169Z,11.07
2022-08-12T02:18:58.518Z,10.85
2022-08-12T02:21:29.709Z,10.95
2022-08-12T02:23:58.557Z,9.57
2022-08-12T02:26:27.185Z,11.23
2022-08-12T02:28:56.235Z,13.75
2022-08-12T02:31:24.785Z,14.90
2022-08-12T02:33:52.569Z,14.80
2022-08-12T02:36:20.273Z,17.83
2022-08-12T02:38:49.889Z,18.23
2022-08-12T02:41:19.635Z,16.38
2022-08-12T02:43:51.172Z,18.98
2022-08-12T02:46:25.530Z,16.55
2022-08-12T02:48:54.787Z,15.80
2022-08-12T02:51:24.705Z,12.80
2022-08-12T02:54:04.753Z,15.70
2022-08-12T02:56:33.875Z,17.65
2022-08-12T02:59:02.232Z,17.02
2022-08-12T03:01:34.162Z,14.75
2022-08-12T03:04:03.895Z,10.82
2022-08-12T03:06:35.114Z,8.15
2022-08-12T03:09:03.775Z,8.90
2022-08-12T03:11:40.217Z,7.93
2022-08-12T03:14:11.685Z,6.90
2022-08-12T03:16:40.808Z,5.28
2022-08-12T03:19:08.792Z,4.50
2022-08-12T03:21:52.973Z,4.30
2022-08-12T03:24:27.309Z,3.83
2022-08-12T03:27:00.335Z,3.28
2022-08-12T03:29:32.714Z,3.22
2022-08-12T03:32:35.103Z,3.33
2022-08-12T03:35:08.450Z,3.97
2022-08-12T03:37:38.259Z,3.60
2022-08-12T03:40:08.722Z,3.78
2022-08-12T03:42:38.747Z,5.88
2022-08-12T03:45:52.338Z,5.20
2022-08-12T03:48:39.690Z,4.38
2022-08-12T03:51:25.064Z,4.00
2022-08-12T03:54:11.606Z,3.80
2022-08-12T03:56:57.088Z,4.07
2022-08-12T03:59:42.733Z,3.95
2022-08-12T04:02:14.491Z,4.28
2022-08-12T04:04:45.264Z,3.78
2022-08-12T04:07:14.084Z,3.97
2022-08-12T04:09:42.399Z,4.05
2022-08-12T04:12:32.267Z,3.67
2022-08-12T04:15:01.423Z,3.50
2022-08-12T04:17:29.158Z,3.97
2022-08-12T04:19:59.366Z,3.90
2022-08-12T04:22:29.620Z,4.05
2022-08-12T04:24:58.849Z,3.85
2022-08-12T04:27:28.823Z,4.22
2022-08-12T04:30:29.308Z,4.55
2022-08-12T04:32:46.193Z,3.83
2022-08-12T04:35:15.325Z,3.70
2022-08-12T04:37:58.776Z,4.53
2022-08-12T04:40:29.673Z,3.80
2022-08-12T04:42:58.208Z,3.95
2022-08-12T04:45:25.884Z,4.25
2022-08-12T04:47:53.465Z,4.25
2022-08-12T04:50:34.501Z,4.18
2022-08-12T04:53:04.396Z,4.30
2022-08-12T04:55:33.384Z,3.70
2022-08-12T04:58:01.538Z,3.90
2022-08-12T05:00:29.085Z,4.18
2022-08-12T05:02:56.807Z,4.05
2022-08-12T05:05:25.781Z,3.80
2022-08-12T05:07:55.239Z,5.20
2022-08-12T05:10:33.115Z,4.35
2022-08-12T05:13:03.526Z,3.88
2022-08-12T05:15:31.217Z,3.88
2022-08-12T05:18:00.250Z,3.70
2022-08-12T05:20:31.055Z,3.67
2022-08-12T05:23:12.445Z,3.88
2022-08-12T05:25:40.531Z,3.60
2022-08-12T05:28:08.118Z,3.40
2022-08-12T05:30:35.996Z,4.00
2022-08-12T05:33:05.350Z,3.42
2022-08-12T05:35:39.825Z,3.05
2022-08-12T05:38:25.179Z,2.90
2022-08-12T05:40:52.881Z,3.05
2022-08-12T05:43:20.945Z,6.25
2022-08-12T05:45:49.545Z,6.78
2022-08-12T05:48:17.631Z,5.55
2022-08-12T05:50:46.824Z,6.45
2022-08-12T05:53:14.628Z,9.43
2022-08-12T05:55:42.262Z,10.25
2022-08-12T05:58:09.956Z,10.38
2022-08-12T06:00:38.104Z,10.20
2022-08-12T06:03:07.998Z,8.02
2022-08-12T06:05:52.547Z,10.20
2022-08-12T06:08:25.882Z,7.78
2022-08-12T06:10:54.136Z,12.05
2022-08-12T06:13:27.980Z,10.07
2022-08-12T06:16:09.982Z,6.63
2022-08-12T06:18:39.874Z,6.00
2022-08-12T06:21:07.811Z,5.00
2022-08-12T06:23:42.335Z,4.22
2022-08-12T06:26:12.729Z,3.28
2022-08-12T06:28:40.716Z,3.47
2022-08-12T06:31:25.831Z,3.40
2022-08-12T06:34:00.973Z,3.28
2022-08-12T06:36:42.982Z,3.00
2022-08-12T06:39:15.437Z,2.80
2022-08-12T06:42:04.988Z,2.60
2022-08-12T06:44:50.297Z,2.65
2022-08-12T06:47:19.360Z,3.15
2022-08-12T06:49:48.408Z,2.58
2022-08-12T06:52:17.128Z,2.63
2022-08-12T06:54:46.056Z,2.70
2022-08-12T06:57:59.714Z,2.70
2022-08-12T07:00:01.462Z,2.92
2022-08-12T07:02:31.545Z,3.08
2022-08-12T07:05:01.400Z,2.92
2022-08-12T07:07:28.944Z,3.10
2022-08-12T07:10:06.512Z,2.58
2022-08-12T07:12:35.930Z,3.22
2022-08-12T07:15:03.507Z,2.78
2022-08-12T07:17:35.819Z,2.92
2022-08-12T07:20:05.045Z,3.13
2022-08-12T07:22:33.290Z,3.20
2022-08-12T07:25:20.095Z,3.22
2022-08-12T07:27:47.793Z,3.25
2022-08-12T07:30:15.351Z,2.90
2022-08-12T07:32:49.687Z,3.03
2022-08-12T07:35:19.498Z,3.28
2022-08-12T07:37:50.369Z,3.13
2022-08-12T07:40:20.580Z,2.95
2022-08-12T07:42:48.333Z,2.88
2022-08-12T07:45:16.090Z,3.10
2022-08-12T07:47:44.145Z,3.08
2022-08-12T07:50:12.631Z,3.30
2022-08-12T07:52:42.860Z,3.15
2022-08-12T07:55:11.115Z,3.33
2022-08-12T07:57:50.632Z,3.33
2022-08-12T08:00:18.422Z,3.10
2022-08-12T08:02:46.063Z,3.30
2022-08-12T08:05:15.540Z,3.67
2022-08-12T08:07:43.304Z,3.30
2022-08-12T08:10:11.857Z,3.78
2022-08-12T08:12:53.843Z,3.58
2022-08-12T08:15:38.687Z,3.90
2022-08-12T08:18:13.214Z,3.70
2022-08-12T08:20:44.993Z,3.47
2022-08-12T08:23:14.822Z,4.15
2022-08-12T08:25:42.436Z,3.80
2022-08-12T08:28:11.353Z,3.60
2022-08-12T08:30:42.644Z,3.50
2022-08-12T08:33:22.753Z,3.70
2022-08-12T08:35:54.350Z,3.47
2022-08-12T08:38:32.343Z,3.95
2022-08-12T08:42:16.293Z,3.60
2022-08-12T08:44:07.943Z,3.95
2022-08-12T08:46:37.817Z,3.58
2022-08-12T08:49:05.959Z,3.88
2022-08-12T08:51:34.016Z,3.72
2022-08-12T08:54:01.775Z,4.63
2022-08-12T08:56:30.181Z,4.10
2022-08-12T08:58:58.017Z,4.13
2022-08-12T09:01:26.106Z,4.72
2022-08-12T09:05:07.504Z,4.75
2022-08-12T09:06:53.456Z,4.15
2022-08-12T09:09:22.095Z,4.38
2022-08-12T09:12:12.147Z,4.10
2022-08-12T09:14:43.516Z,4.00
2022-08-12T09:17:20.778Z,4.18
2022-08-12T09:19:56.870Z,4.25
2022-08-12T09:22:28.567Z,4.10
2022-08-12T09:24:59.899Z,4.65
2022-08-12T09:27:58.021Z,4.57
2022-08-12T09:30:17.747Z,4.03
2022-08-12T09:33:19.069Z,4.88
2022-08-12T09:36:03.197Z,3.92
2022-08-12T09:38:33.630Z,4.53
2022-08-12T09:42:09.603Z,4.50
2022-08-12T09:44:37.815Z,4.20
2022-08-12T09:46:56.414Z,4.00
2022-08-12T09:49:24.974Z,4.28
2022-08-12T09:51:55.436Z,4.35
2022-08-12T09:54:33.627Z,4.40
2022-08-12T09:58:46.872Z,4.53
2022-08-12T10:00:13.023Z,4.70
2022-08-12T10:02:57.292Z,3.95
2022-08-12T10:06:26.648Z,4.45
2022-08-12T10:08:16.654Z,4.30
2022-08-12T10:10:59.152Z,4.15
2022-08-12T10:13:43.389Z,4.60
2022-08-12T10:16:18.657Z,4.25
2022-08-12T10:18:53.419Z,4.60
2022-08-12T10:21:23.250Z,5.13
2022-08-12T10:23:56.711Z,4.65
2022-08-12T10:26:42.926Z,4.40
2022-08-12T10:30:38.642Z,5.03
2022-08-12T10:32:44.158Z,4.40
2022-08-12T10:35:09.509Z,4.80
2022-08-12T10:38:36.300Z,4.15
2022-08-12T10:40:32.242Z,4.35
2022-08-12T10:43:18.667Z,4.22
2022-08-12T10:45:49.000Z,4.47
2022-08-12T10:48:21.379Z,4.80
2022-08-12T10:50:58.546Z,4.68
2022-08-12T10:53:45.535Z,4.63
2022-08-12T10:56:16.393Z,4.50
2022-08-12T10:58:46.111Z,4.78
2022-08-12T11:04:14.375Z,5.20
2022-08-12T11:04:35.707Z,4.75
2022-08-12T11:07:02.554Z,4.65
2022-08-12T11:09:55.628Z,4.68
2022-08-12T11:12:55.208Z,4.68
2022-08-12T11:15:20.721Z,5.15
2022-08-12T11:17:55.642Z,4.65
2022-08-12T11:20:24.458Z,5.10
2022-08-12T11:22:58.661Z,4.68
2022-08-12T11:25:56.484Z,4.57
2022-08-12T11:28:16.457Z,5.05
2022-08-12T11:30:44.140Z,4.85
2022-08-12T11:33:24.046Z,4.88
2022-08-12T11:36:12.049Z,4.53
2022-08-12T11:38:41.576Z,5.10
2022-08-12T11:41:11.224Z,5.03
2022-08-12T11:43:50.267Z,4.65
2022-08-12T11:46:26.356Z,5.03
2022-08-12T11:48:53.944Z,4.82
2022-08-12T11:51:22.014Z,4.97
2022-08-12T11:53:57.641Z,5.03
2022-08-12T11:56:38.328Z,4.95
2022-08-12T12:02:00.954Z,4.97
2022-08-12T12:04:31.941Z,4.80
2022-08-12T12:07:07.065Z,4.65
2022-08-12T12:09:52.202Z,5.10
2022-08-12T12:12:21.418Z,4.95
2022-08-12T12:14:54.288Z,4.90
2022-08-12T12:17:23.683Z,4.72
2022-08-12T12:19:51.245Z,5.50
2022-08-12T12:22:22.996Z,5.25
2022-08-12T12:24:51.107Z,4.75
2022-08-12T12:27:19.368Z,4.88
2022-08-12T12:30:19.806Z,5.10
2022-08-12T12:32:36.148Z,6.38
2022-08-12T12:35:14.554Z,5.68
2022-08-12T12:38:04.927Z,5.25
2022-08-12T12:40:35.844Z,5.28
2022-08-12T12:43:08.765Z,5.78
2022-08-12T12:45:37.104Z,5.50
2022-08-12T12:48:07.883Z,5.20
2022-08-12T12:50:45.320Z,5.65
2022-08-12T12:54:07.007Z,5.72
2022-08-12T12:56:15.288Z,6.28
2022-08-12T12:58:43.927Z,5.57
2022-08-12T13:01:25.390Z,5.60
2022-08-12T13:04:01.738Z,5.57
2022-08-12T13:06:31.857Z,5.60
2022-08-12T13:09:02.453Z,6.07
2022-08-12T13:11:40.681Z,5.15
2022-08-12T13:14:28.173Z,5.40
2022-08-12T13:17:00.898Z,5.28
2022-08-12T13:19:38.597Z,5.68
2022-08-12T13:22:19.987Z,5.10
2022-08-12T13:24:55.030Z,5.30
2022-08-12T13:27:28.391Z,5.03
2022-08-12T13:30:04.295Z,5.10
2022-08-12T13:32:34.607Z,5.22
2022-08-12T13:35:04.717Z,5.20
2022-08-12T13:37:55.297Z,4.53
2022-08-12T13:40:24.713Z,5.05
2022-08-12T13:42:58.031Z,4.70
2022-08-12T13:45:26.308Z,4.95
2022-08-12T13:47:56.362Z,4.82
2022-08-12T13:50:29.766Z,4.40
2022-08-12T13:52:57.355Z,4.78
2022-08-12T13:55:30.959Z,5.28
2022-08-12T13:57:59.935Z,5.10
2022-08-12T14:00:34.292Z,4.65
2022-08-12T14:03:06.804Z,4.85
2022-08-12T14:05:39.620Z,4.57
2022-08-12T14:08:08.537Z,4.63
2022-08-12T14:10:37.799Z,4.70
2022-08-12T14:13:10.331Z,4.85
2022-08-12T14:15:47.814Z,4.70
2022-08-12T14:18:15.813Z,5.15
2022-08-12T14:20:47.722Z,4.80
2022-08-12T14:24:01.252Z,5.00
2022-08-12T14:26:05.347Z,5.13
2022-08-12T14:28:34.863Z,4.32
2022-08-12T14:31:05.260Z,4.82
2022-08-12T14:33:48.236Z,4.45
2022-08-12T14:36:20.397Z,3.80
2022-08-12T14:38:49.792Z,4.45
2022-08-12T14:41:18.879Z,4.38
2022-08-12T14:44:04.400Z,4.70
2022-08-12T14:46:35.755Z,4.40
2022-08-12T14:49:27.581Z,4.50
2022-08-12T14:52:48.202Z,4.40
2022-08-12T14:57:35.608Z,4.88
2022-08-12T15:00:33.207Z,4.43
2022-08-12T15:03:03.681Z,4.35
2022-08-12T15:06:05.219Z,4.70
2022-08-12T15:08:27.978Z,4.55
2022-08-12T15:10:56.711Z,4.13
2022-08-12T15:13:25.000Z,4.20
2022-08-12T15:15:56.232Z,4.10
2022-08-12T15:18:24.599Z,5.20
2022-08-12T15:20:54.507Z,4.43
2022-08-12T15:23:23.561Z,4.50
2022-08-12T15:26:03.060Z,4.78
2022-08-12T15:28:32.636Z,4.40
2022-08-12T15:31:00.740Z,4.53
2022-08-12T15:33:44.759Z,4.63
2022-08-12T15:36:13.848Z,4.50
2022-08-12T15:38:41.867Z,4.20
2022-08-12T15:41:14.488Z,5.00
2022-08-12T15:44:16.376Z,4.78
2022-08-12T15:46:32.549Z,4.53
2022-08-12T15:49:00.349Z,4.47
2022-08-12T15:51:57.622Z,4.53
2022-08-12T15:54:33.914Z,4.38
2022-08-12T15:57:05.305Z,4.15
2022-08-12T15:59:51.975Z,4.20
2022-08-12T16:02:21.267Z,4.47
2022-08-12T16:04:50.587Z,3.92
2022-08-12T16:07:21.692Z,4.72
2022-08-12T16:10:04.505Z,4.78
2022-08-12T16:12:41.844Z,4.03
2022-08-12T16:15:10.286Z,4.20
2022-08-12T16:18:18.121Z,4.40
2022-08-12T16:20:33.266Z,4.55
2022-08-12T16:23:04.158Z,4.10
2022-08-12T16:26:03.061Z,4.03
2022-08-12T16:28:22.572Z,4.32
2022-08-12T16:30:56.098Z,4.65
2022-08-12T16:33:35.643Z,4.10
2022-08-12T16:36:06.016Z,4.60
2022-08-12T16:38:39.062Z,4.25
2022-08-12T16:41:07.194Z,3.85
2022-08-12T16:43:37.170Z,4.20
2022-08-12T16:46:31.665Z,4.25
2022-08-12T16:48:55.001Z,5.03
2022-08-12T16:51:26.698Z,5.20
2022-08-12T16:53:54.294Z,5.15
2022-08-12T16:56:21.868Z,5.00
2022-08-12T16:58:52.107Z,5.07
2022-08-12T17:01:20.071Z,5.10
2022-08-12T17:04:05.196Z,5.03
2022-08-12T17:06:41.453Z,4.75
2022-08-12T17:09:17.114Z,4.95
2022-08-12T17:11:49.192Z,4.63
2022-08-12T17:14:23.014Z,4.75
2022-08-12T17:16:52.200Z,4.55
2022-08-12T17:19:20.412Z,4.60
2022-08-12T17:22:08.870Z,4.90
2022-08-12T17:24:37.389Z,4.30
2022-08-12T17:27:16.203Z,4.00
2022-08-12T17:30:02.243Z,4.03
2022-08-12T17:32:33.096Z,5.38
2022-08-12T17:35:18.806Z,4.70
2022-08-12T17:37:48.395Z,5.22
2022-08-12T17:40:34.690Z,4.15
2022-08-12T17:43:55.860Z,4.57
2022-08-12T17:45:58.683Z,3.78
2022-08-12T17:48:34.888Z,4.43
2022-08-12T17:51:15.976Z,4.82
2022-08-12T17:54:10.364Z,4.20
2022-08-12T17:56:36.756Z,3.70
2022-08-12T17:59:04.433Z,3.63
2022-08-12T18:01:36.831Z,4.43
2022-08-12T18:04:21.962Z,4.00
2022-08-12T18:06:51.734Z,3.95
2022-08-12T18:09:19.429Z,3.45
2022-08-12T18:12:07.830Z,4.20
2022-08-12T18:14:36.950Z,3.88
2022-08-12T18:17:08.821Z,3.97
2022-08-12T18:20:06.080Z,5.15
2022-08-12T18:22:30.591Z,4.10
2022-08-12T18:26:10.063Z,9.45
2022-08-12T18:28:16.078Z,6.43
2022-08-12T18:30:52.739Z,11.88
2022-08-12T18:33:24.711Z,7.53
2022-08-12T18:35:55.514Z,4.18
2022-08-12T18:38:25.783Z,3.80
2022-08-12T18:41:21.129Z,3.60
2022-08-12T18:43:58.925Z,3.42
2022-08-12T18:46:33.051Z,3.63
2022-08-12T18:49:16.883Z,3.10
2022-08-12T18:51:55.525Z,3.47
2022-08-12T18:54:30.312Z,3.80
2022-08-12T18:56:59.434Z,3.65
2022-08-12T19:00:02.628Z,3.40
2022-08-12T19:02:21.149Z,3.33
2022-08-12T19:04:52.999Z,3.53
2022-08-12T19:07:22.395Z,4.13
2022-08-12T19:09:57.896Z,3.88
2022-08-12T19:12:56.894Z,3.90
2022-08-12T19:15:26.486Z,3.40
2022-08-12T19:18:00.897Z,3.58
2022-08-12T19:20:32.780Z,3.75
2022-08-12T19:23:08.031Z,3.67
2022-08-12T19:26:01.829Z,3.45
2022-08-12T19:28:34.877Z,3.40
2022-08-12T19:31:45.228Z,3.30
2022-08-12T19:34:42.044Z,3.50
2022-08-12T19:37:14.784Z,3.70
2022-08-12T19:40:08.830Z,3.80
2022-08-12T19:42:32.883Z,3.58
2022-08-12T19:45:04.591Z,3.40
2022-08-12T19:47:38.937Z,3.80
2022-08-12T19:50:11.299Z,3.58
2022-08-12T19:52:42.150Z,3.17
2022-08-12T19:55:11.407Z,3.50
2022-08-12T19:58:01.641Z,3.20
2022-08-12T20:00:34.893Z,3.05
2022-08-12T20:03:06.113Z,3.30
2022-08-12T20:06:06.375Z,3.30
2022-08-12T20:08:34.371Z,3.58
2022-08-12T20:12:11.622Z,3.45
2022-08-12T20:14:00.264Z,3.17
2022-08-12T20:16:52.480Z,3.17
2022-08-12T20:19:16.339Z,3.35
2022-08-12T20:21:44.366Z,3.42
2022-08-12T20:24:14.404Z,3.40
2022-08-12T20:26:43.205Z,3.45
2022-08-12T20:29:12.108Z,3.20
2022-08-12T20:31:40.135Z,3.30
2022-08-12T20:34:09.140Z,3.22
2022-08-12T20:36:44.463Z,3.10
2022-08-12T20:39:37.185Z,3.45
2022-08-12T20:42:07.077Z,3.65
2022-08-12T20:44:38.893Z,3.63
2022-08-12T20:47:18.776Z,3.22
2022-08-12T20:49:55.387Z,2.97
2022-08-12T20:52:29.266Z,3.50
2022-08-12T20:54:59.799Z,3.63
2022-08-12T20:57:38.325Z,3.60
2022-08-12T21:00:28.499Z,3.75
2022-08-12T21:03:16.244Z,3.72
2022-08-12T21:06:10.299Z,3.20
2022-08-12T21:08:41.763Z,3.88
2022-08-12T21:11:10.732Z,3.97
2022-08-12T21:13:41.775Z,3.60
2022-08-12T21:16:10.194Z,3.55
2022-08-12T21:18:38.377Z,3.58
2022-08-12T21:21:06.771Z,3.53
2022-08-12T21:23:51.265Z,3.92
2022-08-12T21:26:26.232Z,3.50
2022-08-12T21:29:01.394Z,3.60
2022-08-12T21:32:37.205Z,3.53
2022-08-12T21:34:21.416Z,3.50
2022-08-12T21:36:53.888Z,3.35
2022-08-12T21:39:35.098Z,3.10
2022-08-12T21:42:07.007Z,3.13
2022-08-12T21:45:46.239Z,3.13
2022-08-12T21:47:23.415Z,3.60
2022-08-12T21:50:02.566Z,3.75
2022-08-12T21:52:35.653Z,3.33
2022-08-12T21:55:08.657Z,3.50
2022-08-12T21:57:53.568Z,3.60
2022-08-12T22:00:32.454Z,3.40
2022-08-12T22:04:01.365Z,3.55
2022-08-12T22:06:30.654Z,3.80
2022-08-12T22:09:15.818Z,4.13
2022-08-12T22:11:56.810Z,3.40
2022-08-12T22:14:29.335Z,3.20
2022-08-12T22:16:57.897Z,3.33
2022-08-12T22:19:26.672Z,3.63
2022-08-12T22:21:56.210Z,3.78
2022-08-12T22:24:30.059Z,3.42
2022-08-12T22:26:58.757Z,3.80
2022-08-12T22:29:45.359Z,3.53
2022-08-12T22:32:15.700Z,3.45
2022-08-12T22:34:44.496Z,3.75
2022-08-12T22:37:20.235Z,3.83
2022-08-12T22:39:49.020Z,3.90
2022-08-12T22:42:34.738Z,3.65
2022-08-12T22:45:23.416Z,4.07
2022-08-12T22:47:55.568Z,3.70
2022-08-12T22:50:27.653Z,4.38
2022-08-12T22:53:14.080Z,3.95
2022-08-12T22:56:00.501Z,3.50
2022-08-12T22:58:31.921Z,3.90
2022-08-12T23:01:02.426Z,4.05
2022-08-12T23:03:48.088Z,3.40
2022-08-12T23:06:19.398Z,4.90
2022-08-12T23:08:47.950Z,5.65
2022-08-12T23:11:17.066Z,4.65
2022-08-12T23:13:54.649Z,4.40
2022-08-12T23:16:29.135Z,4.47
2022-08-12T23:19:01.385Z,4.82
2022-08-12T23:21:40.335Z,4.43
2022-08-12T23:24:17.225Z,5.15
2022-08-12T23:27:04.250Z,5.00
2022-08-12T23:29:43.855Z,5.18
2022-08-12T23:32:35.750Z,5.60
2022-08-12T23:35:06.406Z,5.22
2022-08-12T23:37:47.690Z,4.93
2022-08-12T23:40:22.364Z,6.00
2022-08-12T23:42:54.051Z,5.85
2022-08-12T23:45:31.509Z,5.18
2022-08-12T23:48:01.750Z,5.55
2022-08-12T23:50:34.558Z,5.93
2022-08-12T23:53:05.320Z,5.85
2022-08-12T23:55:33.999Z,6.22
2022-08-12T23:58:21.701Z,5.75
